Time;durP1;ratioP1;P1;durP2;ratioP2;P2;SDS_P1;SDS_P2;PMS_P1;PMS_P2;Temp;Humidity;BMP_temperature;BMP_pressure;BME280_temperature;BME280_humidity;BME280_pressure;Samples;Min_cycle;Max_cycle;Signal;HPM_P1;HPM_P2
2022/12/04 00:00:37;;;;;;;1.38;1.10;;;0.90;99.90;;;;;;5068570;28;20049;-86
2022/12/04 00:03:02;;;;;;;2.42;1.70;;;0.60;99.90;;;;;;5051615;28;20134;-86
2022/12/04 00:05:28;;;;;;;1.80;1.70;;;0.60;1.00;;;;;;5069944;28;20044;-86
2022/12/04 00:07:54;;;;;;;1.08;0.98;;;0.50;99.30;;;;;;5068359;28;20119;-86
2022/12/04 00:10:19;;;;;;;1.30;0.68;;;0.60;99.90;;;;;;5069515;28;20500;-86
2022/12/04 00:12:45;;;;;;;3.08;2.47;;;0.60;99.90;;;;;;5069581;28;20044;-86
2022/12/04 00:15:11;;;;;;;1.25;1.15;;;0.60;18.10;;;;;;5070037;28;20033;-86
2022/12/04 00:17:36;;;;;;;1.58;1.48;;;0.60;1.00;;;;;;5070041;28;20148;-86
2022/12/04 00:20:02;;;;;;;0.95;0.95;;;0.60;99.90;;;;;;5051463;28;20044;-86
2022/12/04 00:22:28;;;;;;;3.75;3.45;;;0.50;99.90;;;;;;5069423;28;20059;-86
2022/12/04 00:24:54;;;;;;;0.65;0.65;;;0.60;99.90;;;;;;5067964;28;20041;-86
2022/12/04 00:27:19;;;;;;;1.15;0.95;;;0.60;99.90;;;;;;5069819;28;20128;-86
2022/12/04 00:29:45;;;;;;;0.77;0.73;;;0.60;99.90;;;;;;5069065;28;20064;-87
2022/12/04 00:32:11;;;;;;;0.60;0.60;;;0.60;1.00;;;;;;5068921;28;20374;-86
2022/12/04 00:34:36;;;;;;;0.95;0.95;;;0.70;1.00;;;;;;5068690;28;20040;-86
2022/12/04 00:37:02;;;;;;;0.77;0.75;;;0.60;99.90;;;;;;5071392;28;20111;-86
2022/12/04 00:39:28;;;;;;;2.75;1.75;;;0.50;99.90;;;;;;5072444;28;20129;-86
2022/12/04 00:41:53;;;;;;;3.00;2.75;;;0.50;49.50;;;;;;5073096;28;20060;-86
2022/12/04 00:44:19;;;;;;;2.28;2.08;;;0.50;99.90;;;;;;5054629;28;20056;-86
2022/12/04 00:46:44;;;;;;;8.55;3.63;;;0.60;99.90;;;;;;5072812;28;20131;-86
2022/12/04 00:49:10;;;;;;;1.55;1.45;;;0.50;99.90;;;;;;5072400;28;20075;-86
2022/12/04 00:51:37;;;;;;;1.30;1.27;;;0.50;99.90;;;;;;5073465;28;20055;-86
2022/12/04 00:54:03;;;;;;;1.63;1.48;;;0.50;99.90;;;;;;5072972;28;20041;-86
2022/12/04 00:56:28;;;;;;;2.78;2.58;;;0.50;17.40;;;;;;5054663;28;20512;-86
2022/12/04 00:58:56;;;;;;;1.85;1.70;;;0.50;99.90;;;;;;5073175;28;20051;-86
2022/12/04 01:01:23;;;;;;;1.73;1.63;;;1.10;1.00;;;;;;5071868;28;20076;-86
2022/12/04 01:03:49;;;;;;;2.92;1.75;;;0.50;99.90;;;;;;5071100;28;20063;-86
2022/12/04 01:06:21;;;;;;;0.63;0.63;;;0.40;99.90;;;;;;5072684;28;20044;-86
2022/12/04 01:08:48;;;;;;;2.65;1.65;;;1.10;99.90;;;;;;5072474;28;20405;-86
2022/12/04 01:11:14;;;;;;;0.82;0.82;;;0.40;99.90;;;;;;5072162;28;20056;-85
2022/12/04 01:13:39;;;;;;;1.63;1.30;;;0.40;99.90;;;;;;5053839;28;20059;-86
2022/12/04 01:16:05;;;;;;;3.42;2.65;;;0.40;1.00;;;;;;5072513;28;20052;-86
2022/12/04 01:18:31;;;;;;;1.88;1.77;;;1.10;99.90;;;;;;5072231;28;20076;-86
2022/12/04 01:20:56;;;;;;;1.58;1.48;;;0.40;1.00;;;;;;5054722;28;20909;-85
2022/12/04 01:23:22;;;;;;;1.80;1.70;;;0.40;99.90;;;;;;5072554;28;20044;-86
2022/12/04 01:25:57;;;;;;;2.33;1.50;;;0.30;1.00;;;;;;5052976;28;20044;-85
2022/12/04 01:28:24;;;;;;;1.52;1.42;;;0.30;99.90;;;;;;5052951;28;20044;-86
2022/12/04 01:31:17;;;;;;;8.88;1.20;;;0.30;1.00;;;;;;5053135;28;20052;-85
2022/12/04 01:33:44;;;;;;;1.35;1.33;;;0.40;99.90;;;;;;5050588;28;20201;-86
2022/12/04 01:36:13;;;;;;;2.17;2.05;;;0.30;99.90;;;;;;5070836;28;21113;-85
2022/12/04 01:38:39;;;;;;;2.33;1.65;;;0.30;99.90;;;;;;5054229;28;20119;-86
2022/12/04 01:41:05;;;;;;;1.52;1.42;;;0.30;99.90;;;;;;5053390;28;20048;-86
2022/12/04 01:43:32;;;;;;;0.30;0.30;;;0.70;99.90;;;;;;5053061;28;20498;-86
2022/12/04 01:45:59;;;;;;;2.40;1.95;;;0.30;1.00;;;;;;5071705;28;20056;-85
2022/12/04 01:48:52;;;;;;;10.35;2.47;;;0.20;99.90;;;;;;5069867;28;20131;-86
2022/12/04 01:51:29;;;;;;;2.65;2.47;;;0.30;99.90;;;;;;5050660;28;20503;-87
2022/12/04 01:53:58;;;;;;;2.30;2.10;;;0.20;99.90;;;;;;5068452;28;20494;-86
2022/12/04 01:56:31;;;;;;;2.10;1.00;;;0.30;99.90;;;;;;5070559;28;20411;-86
2022/12/04 01:59:00;;;;;;;1.45;1.35;;;0.30;99.90;;;;;;5053077;28;20052;-85
2022/12/04 02:01:30;;;;;;;2.17;1.27;;;0.20;1.00;;;;;;5070985;28;20061;-85
2022/12/04 02:03:57;;;;;;;2.15;2.05;;;0.20;85.80;;;;;;5073246;28;20052;-85
2022/12/04 02:06:23;;;;;;;4.97;4.28;;;0.20;1.00;;;;;;5072967;28;20087;-86
2022/12/04 02:08:49;;;;;;;1.38;1.27;;;0.20;1.00;;;;;;5072927;28;20379;-85
2022/12/04 02:11:34;;;;;;;1.63;1.53;;;0.10;53.70;;;;;;5073333;28;20061;-86
2022/12/04 02:14:14;;;;;;;0.77;0.77;;;0.10;99.90;;;;;;5072899;28;20044;-86
2022/12/04 02:17:07;;;;;;;1.15;1.15;;;0.20;99.90;;;;;;5071973;28;20592;-86
2022/12/04 02:20:03;;;;;;;3.10;2.75;;;0.10;1.00;;;;;;5072106;28;20052;-86
2022/12/04 02:23:00;;;;;;;2.03;1.92;;;0.10;99.90;;;;;;5053596;28;20052;-86
2022/12/04 02:25:46;;;;;;;1.15;1.08;;;0.10;99.90;;;;;;5071518;28;20052;-86
2022/12/04 02:28:45;;;;;;;1.83;1.73;;;0.10;99.90;;;;;;5069851;28;20056;-85
2022/12/04 02:31:18;;;;;;;1.33;1.15;;;0.10;99.90;;;;;;5070669;28;20052;-85
2022/12/04 02:33:55;;;;;;;4.00;2.92;;;0.00;99.90;;;;;;5052317;28;20094;-86
2022/12/04 02:36:25;;;;;;;1.27;1.17;;;0.00;99.90;;;;;;5070178;28;20097;-86
2022/12/04 02:39:06;;;;;;;2.10;1.85;;;0.00;99.90;;;;;;5070507;28;20056;-85
2022/12/04 02:41:42;;;;;;;3.10;2.28;;;0.00;99.90;;;;;;5070760;28;20106;-85
2022/12/04 02:44:29;;;;;;;0.82;0.82;;;0.00;99.90;;;;;;5070548;28;20433;-85
2022/12/04 02:46:59;;;;;;;3.08;2.83;;;0.00;99.90;;;;;;5052075;28;20075;-85
2022/12/04 02:49:34;;;;;;;3.88;3.13;;;0.00;99.90;;;;;;5070111;28;20778;-85
2022/12/04 02:52:01;;;;;;;2.20;2.05;;;0.40;99.90;;;;;;5051897;28;20044;-85
2022/12/04 02:54:38;;;;;;;1.67;1.58;;;0.00;99.90;;;;;;5069446;28;20048;-85
2022/12/04 02:57:09;;;;;;;2.40;2.17;;;-0.10;1.00;;;;;;5060125;28;20080;-85
2022/12/04 02:59:41;;;;;;;0.98;0.95;;;-0.10;1.00;;;;;;5105684;22;20450;-95
2022/12/04 03:02:13;;;;;;;5.28;2.47;;;-0.10;1.00;;;;;;5063084;28;20067;-93
2022/12/04 03:04:41;;;;;;;5.90;3.47;;;-0.10;99.90;;;;;;5079769;28;20024;-94
2022/12/04 03:07:15;;;;;;;1.73;1.63;;;-0.10;1.00;;;;;;5063323;28;20088;-93
2022/12/04 03:09:49;;;;;;;3.55;3.25;;;0.00;99.90;;;;;;5079730;28;20055;-92
2022/12/04 03:12:20;;;;;;;6.75;2.88;;;-0.20;1.00;;;;;;5096519;28;20052;-93
2022/12/04 03:15:01;;;;;;;3.97;3.20;;;-0.10;99.90;;;;;;5078769;28;20033;-92
2022/12/04 03:17:46;;;;;;;1.25;1.15;;;-0.10;1.00;;;;;;5078069;28;20063;-93
2022/12/04 03:20:15;;;;;;;1.13;1.05;;;-0.10;1.00;;;;;;5061581;28;20051;-92
2022/12/04 03:27:52;;;;;;;3.45;3.20;;;-0.10;1.00;;;;;;5080444;28;20082;-76
2022/12/04 03:30:20;;;;;;;0.60;0.57;;;-0.10;1.00;;;;;;5082902;28;20051;-76
2022/12/04 03:32:56;;;;;;;3.55;2.10;;;-0.10;1.00;;;;;;5083502;28;20497;-76
2022/12/04 03:35:43;;;;;;;5.90;5.40;;;-0.10;1.00;;;;;;5083479;28;20040;-76
2022/12/04 03:38:36;;;;;;;1.85;1.75;;;-0.10;34.20;;;;;;5064303;28;20401;-76
2022/12/04 03:41:14;;;;;;;1.75;1.40;;;-0.10;99.90;;;;;;5067633;28;20118;-76
2022/12/04 03:44:04;;;;;;;1.60;1.50;;;-0.10;99.90;;;;;;5084378;28;20048;-76
2022/12/04 03:46:40;;;;;;;1.00;0.95;;;-0.20;99.90;;;;;;5083658;28;20544;-76
2022/12/04 03:49:31;;;;;;;2.42;2.22;;;-0.20;99.90;;;;;;5084046;28;20059;-76
2022/12/04 03:52:17;;;;;;;6.07;3.70;;;-0.20;99.90;;;;;;5083915;28;20052;-76
2022/12/04 03:54:51;;;;;;;3.08;2.60;;;-0.20;99.90;;;;;;5084254;28;20078;-76
2022/12/04 03:57:24;;;;;;;0.85;0.82;;;-0.20;99.90;;;;;;5084177;28;20051;-76
2022/12/04 04:00:15;;;;;;;2.63;2.42;;;-0.20;99.90;;;;;;5077602;28;20497;-76
2022/12/04 04:02:50;;;;;;;1.38;1.27;;;-0.20;99.90;;;;;;5051529;28;20106;-76
2022/12/04 04:05:17;;;;;;;2.05;1.95;;;-0.20;99.90;;;;;;5063366;28;20501;-76
2022/12/04 04:07:49;;;;;;;5.80;4.75;;;-0.20;99.90;;;;;;5063778;28;20048;-75
2022/12/04 04:10:18;;;;;;;1.67;1.58;;;-0.20;99.90;;;;;;5064084;28;20123;-76
2022/12/04 04:24:13;;;;;;;2.00;1.90;;;-0.20;99.90;;;;;;5067408;28;20516;-77
2022/12/04 04:24:14;;;;;;;0.70;0.70;;;-0.20;98.40;;;;;;5067427;28;20120;-76
2022/12/04 04:26:46;;;;;;;1.88;1.77;;;-0.20;98.90;;;;;;5067567;28;20177;-76
2022/12/04 04:29:12;;;;;;;2.00;1.90;;;-0.20;58.00;;;;;;5067568;28;20045;-76
2022/12/04 04:31:42;;;;;;;3.75;3.13;;;-0.20;68.60;;;;;;5049884;28;20517;-77
2022/12/04 04:34:37;;;;;;;3.13;2.83;;;-0.20;35.10;;;;;;5066107;28;20052;-76
2022/12/04 04:37:12;;;;;;;0.98;0.80;;;-0.20;68.30;;;;;;5047139;28;20045;-76
2022/12/04 04:39:55;;;;;;;2.25;2.03;;;-0.20;29.40;;;;;;5054463;28;20052;-76
2022/12/04 04:42:28;;;;;;;2.03;1.92;;;-0.20;91.60;;;;;;5067124;28;20052;-77
2022/12/04 04:45:07;;;;;;;2.42;1.90;;;-0.20;16.60;;;;;;5066788;28;20207;-76
2022/12/04 04:47:42;;;;;;;1.77;1.05;;;-0.20;27.20;;;;;;5066971;28;20440;-76
2022/12/04 04:50:10;;;;;;;2.50;1.42;;;-0.20;20.00;;;;;;5066890;28;20055;-76
2022/12/04 04:52:39;;;;;;;1.45;1.35;;;-0.20;1.00;;;;;;5067330;28;20044;-76
2022/12/04 04:55:06;;;;;;;1.13;1.08;;;-0.20;1.00;;;;;;5066787;28;20135;-76
2022/12/04 04:57:34;;;;;;;2.75;2.03;;;-0.20;1.00;;;;;;5066703;28;20048;-76
2022/12/04 05:00:04;;;;;;;3.13;2.08;;;-0.20;1.00;;;;;;5065759;28;20086;-76
2022/12/04 05:02:30;;;;;;;2.33;2.17;;;-0.20;16.70;;;;;;5065752;28;20037;-76
2022/12/04 05:04:56;;;;;;;3.55;1.83;;;-0.20;58.60;;;;;;5066103;28;20405;-76
2022/12/04 05:07:21;;;;;;;1.17;1.15;;;-0.10;22.20;;;;;;5066459;28;20049;-76
2022/12/04 05:09:47;;;;;;;1.58;1.42;;;-0.20;1.00;;;;;;5066063;28;20033;-76
2022/12/04 05:12:12;;;;;;;1.77;1.67;;;-0.10;1.00;;;;;;5066218;28;20090;-76
2022/12/04 05:14:38;;;;;;;5.10;4.38;;;-0.20;11.90;;;;;;5066082;28;20697;-76
2022/12/04 05:17:05;;;;;;;2.30;2.20;;;-0.20;70.40;;;;;;5066160;28;20858;-76
2022/12/04 05:19:52;;;;;;;2.30;1.65;;;-0.20;93.30;;;;;;5065803;28;21077;-76
2022/12/04 05:22:19;;;;;;;2.85;2.63;;;-0.20;97.10;;;;;;5065230;28;20052;-76
2022/12/04 05:24:45;;;;;;;5.15;2.28;;;-0.10;11.20;;;;;;5065308;28;20036;-76
2022/12/04 05:27:10;;;;;;;1.85;1.75;;;-0.10;1.00;;;;;;5065533;28;21019;-76
2022/12/04 05:29:36;;;;;;;1.45;1.40;;;-0.20;4.20;;;;;;5065065;28;20505;-76
2022/12/04 05:32:02;;;;;;;1.63;1.52;;;-0.10;1.00;;;;;;5065453;28;20044;-76
2022/12/04 05:34:28;;;;;;;4.45;3.95;;;-0.10;1.00;;;;;;5065129;28;20040;-76
2022/12/04 05:36:54;;;;;;;1.65;1.55;;;-0.10;32.40;;;;;;5065284;28;20086;-76
2022/12/04 05:39:19;;;;;;;1.77;1.67;;;-0.10;72.00;;;;;;5064965;28;20044;-76
2022/12/04 05:41:46;;;;;;;3.20;2.10;;;-0.10;37.90;;;;;;5065013;28;20076;-76
2022/12/04 05:44:11;;;;;;;3.35;2.88;;;-0.10;11.50;;;;;;5065361;28;20036;-76
2022/12/04 05:46:37;;;;;;;12.13;2.35;;;-0.10;74.80;;;;;;5064821;28;20550;-76
2022/12/04 05:49:03;;;;;;;0.70;0.70;;;-0.10;78.80;;;;;;5064972;28;20054;-75
2022/12/04 05:51:29;;;;;;;4.88;2.50;;;-0.10;29.60;;;;;;5064794;28;20087;-76
2022/12/04 05:57:42;;;;;;;2.13;2.00;;;-0.10;43.30;;;;;;5038561;28;20370;-76
2022/12/04 06:00:08;;;;;;;1.67;1.58;;;-0.10;43.40;;;;;;5053446;28;20429;-76
2022/12/04 06:02:33;;;;;;;1.33;1.25;;;-0.10;63.50;;;;;;5065135;28;20037;-76
2022/12/04 06:04:59;;;;;;;2.17;2.03;;;-0.10;30.90;;;;;;5064548;28;20535;-76
2022/12/04 06:07:25;;;;;;;8.05;1.80;;;0.00;67.80;;;;;;5064154;28;20083;-76
2022/12/04 06:09:50;;;;;;;3.03;2.63;;;0.00;99.20;;;;;;5063673;28;20106;-76
2022/12/04 06:12:16;;;;;;;2.88;1.92;;;0.00;99.90;;;;;;5064017;28;20052;-76
2022/12/04 06:14:42;;;;;;;3.30;3.00;;;0.00;99.90;;;;;;5046114;28;20053;-76
2022/12/04 06:17:28;;;;;;;2.42;1.38;;;0.00;99.90;;;;;;5064402;28;20059;-76
2022/12/04 06:20:29;;;;;;;1.67;1.58;;;0.00;99.90;;;;;;5063423;28;20460;-76
2022/12/04 06:22:57;;;;;;;3.80;3.42;;;0.00;99.90;;;;;;4946776;28;20166;-76
2022/12/04 06:25:23;;;;;;;2.80;1.33;;;0.00;99.90;;;;;;5044779;28;20127;-76
2022/12/04 06:27:50;;;;;;;6.40;2.17;;;0.00;99.90;;;;;;5064284;28;20052;-76
2022/12/04 06:30:16;;;;;;;0.75;0.73;;;0.00;99.90;;;;;;5063974;28;20048;-76
2022/12/04 06:32:41;;;;;;;1.88;1.77;;;0.00;99.90;;;;;;5064064;28;20466;-76
2022/12/04 06:35:07;;;;;;;2.47;2.28;;;-0.10;99.90;;;;;;5062625;28;20453;-76
2022/12/04 06:37:39;;;;;;;0.98;0.93;;;-0.10;99.90;;;;;;5063234;28;20051;-76
2022/12/04 06:40:05;;;;;;;2.80;2.25;;;-0.10;99.90;;;;;;5063953;28;20052;-76
2022/12/04 06:42:31;;;;;;;1.85;1.75;;;-0.10;99.90;;;;;;5064197;28;20603;-76
2022/12/04 06:44:56;;;;;;;5.45;1.60;;;-0.10;99.90;;;;;;5063634;28;20051;-76
2022/12/04 06:47:22;;;;;;;2.60;1.88;;;-0.10;99.90;;;;;;5062221;28;20083;-76
2022/12/04 06:49:49;;;;;;;2.08;1.98;;;-0.10;99.90;;;;;;5061638;28;20137;-76
2022/12/04 06:52:15;;;;;;;1.48;1.38;;;-0.10;99.90;;;;;;5054740;28;20128;-76
2022/12/04 06:54:41;;;;;;;2.55;2.35;;;-0.10;99.90;;;;;;5051359;28;20123;-76
2022/12/04 06:57:07;;;;;;;3.47;2.72;;;-0.10;99.90;;;;;;5052653;28;20162;-76
2022/12/04 06:59:32;;;;;;;11.70;2.08;;;-0.10;99.90;;;;;;5061162;28;20041;-76
2022/12/04 07:01:58;;;;;;;1.75;1.65;;;-0.10;99.90;;;;;;5061769;28;20059;-76
2022/12/04 07:04:24;;;;;;;0.77;0.77;;;-0.10;99.90;;;;;;5061862;28;20040;-76
2022/12/04 07:06:53;;;;;;;2.00;1.90;;;-0.10;99.90;;;;;;5061435;28;20575;-76
2022/12/04 07:09:19;;;;;;;1.90;1.80;;;-0.10;99.90;;;;;;5060934;28;20495;-76
2022/12/04 07:11:44;;;;;;;1.92;1.83;;;-0.10;99.90;;;;;;5061390;28;20398;-76
2022/12/04 07:14:11;;;;;;;1.90;1.80;;;-0.10;99.90;;;;;;5061643;28;20412;-76
2022/12/04 07:16:38;;;;;;;1.05;1.02;;;-0.10;99.90;;;;;;5061674;28;20391;-75
2022/12/04 07:19:04;;;;;;;0.55;0.55;;;-0.20;99.90;;;;;;5061063;28;20060;-75
2022/12/04 07:21:30;;;;;;;2.40;2.22;;;-0.20;99.90;;;;;;5060808;28;20067;-75
2022/12/04 07:23:58;;;;;;;7.53;2.55;;;-0.20;99.90;;;;;;5043276;28;20079;-75
2022/12/04 07:26:31;;;;;;;0.45;0.45;;;-0.10;99.90;;;;;;5043884;28;20478;-76
2022/12/04 07:28:58;;;;;;;2.33;1.30;;;-0.20;99.90;;;;;;5043780;28;20109;-76
2022/12/04 07:31:25;;;;;;;3.28;3.03;;;-0.20;99.90;;;;;;5061332;28;20044;-76
2022/12/04 07:33:53;;;;;;;2.50;1.77;;;-0.20;99.90;;;;;;5042911;28;20052;-76
2022/12/04 07:36:20;;;;;;;3.25;2.35;;;-0.10;99.90;;;;;;5061108;28;20447;-76
2022/12/04 07:38:46;;;;;;;0.40;0.40;;;-0.10;99.90;;;;;;5061169;28;20036;-76
2022/12/04 07:41:13;;;;;;;0.75;0.75;;;-0.10;99.90;;;;;;5060808;28;20055;-76
2022/12/04 07:43:39;;;;;;;3.78;2.65;;;-0.10;99.90;;;;;;5061184;28;20054;-76
2022/12/04 07:46:14;;;;;;;3.67;3.03;;;-0.10;99.90;;;;;;5059933;28;20049;-75
2022/12/04 07:48:41;;;;;;;8.70;1.58;;;-0.10;99.90;;;;;;5060710;28;20497;-76
2022/12/04 07:51:07;;;;;;;0.10;0.10;;;-0.10;99.90;;;;;;5061317;28;20041;-76
2022/12/04 07:53:34;;;;;;;3.13;2.85;;;-0.10;99.90;;;;;;5060787;28;20083;-76
2022/12/04 07:56:00;;;;;;;0.50;0.47;;;-0.10;99.90;;;;;;5061113;28;20123;-75
2022/12/04 07:58:26;;;;;;;2.40;2.20;;;-0.10;99.90;;;;;;5060920;28;20048;-76
2022/12/04 08:00:52;;;;;;;1.58;1.48;;;-0.10;99.90;;;;;;5060615;28;20052;-76
2022/12/04 08:03:17;;;;;;;4.20;3.38;;;0.00;99.90;;;;;;5055988;28;20045;-76
2022/12/04 08:05:43;;;;;;;1.90;1.67;;;0.00;99.90;;;;;;5032330;28;20486;-76
2022/12/04 08:08:09;;;;;;;2.60;1.88;;;0.00;99.90;;;;;;5038293;28;20521;-76
2022/12/04 08:10:34;;;;;;;4.82;3.13;;;0.00;99.90;;;;;;5052163;28;20516;-76
2022/12/04 08:13:03;;;;;;;3.33;2.28;;;0.00;99.90;;;;;;5058179;28;20051;-76
2022/12/04 08:15:28;;;;;;;4.57;1.90;;;0.00;99.90;;;;;;5050998;28;20423;-76
2022/12/04 08:17:54;;;;;;;3.38;2.30;;;0.10;99.90;;;;;;5052647;28;20052;-76
2022/12/04 08:20:20;;;;;;;1.98;1.85;;;0.10;99.90;;;;;;5039792;28;20487;-75
2022/12/04 08:22:46;;;;;;;2.15;2.03;;;0.10;99.90;;;;;;5058588;28;20056;-76
2022/12/04 08:25:12;;;;;;;2.03;1.88;;;0.10;99.90;;;;;;5058322;28;20084;-76
2022/12/04 08:27:38;;;;;;;3.47;2.90;;;0.20;99.90;;;;;;5057894;28;20190;-76
2022/12/04 08:30:04;;;;;;;0.73;0.73;;;0.20;99.90;;;;;;5058015;28;20080;-76
2022/12/04 08:32:30;;;;;;;3.30;1.52;;;0.20;99.90;;;;;;5058179;28;20040;-76
2022/12/04 08:34:55;;;;;;;6.22;4.47;;;0.20;99.90;;;;;;5058364;28;20071;-76
2022/12/04 08:37:21;;;;;;;0.88;0.85;;;0.30;99.90;;;;;;5058094;28;20560;-76
2022/12/04 08:39:47;;;;;;;2.65;2.15;;;0.30;99.90;;;;;;5057599;28;20047;-76
2022/12/04 08:42:12;;;;;;;2.38;1.05;;;0.30;99.90;;;;;;5058177;28;20049;-76
2022/12/04 08:44:38;;;;;;;4.40;3.42;;;0.30;99.90;;;;;;5058565;28;20051;-76
2022/12/04 08:47:03;;;;;;;3.10;2.42;;;0.30;99.90;;;;;;5058217;28;20222;-76
2022/12/04 08:49:29;;;;;;;0.98;0.95;;;0.40;99.90;;;;;;5058285;28;20401;-76
2022/12/04 08:51:55;;;;;;;2.80;2.13;;;0.40;99.90;;;;;;5058056;28;20059;-76
2022/12/04 08:54:21;;;;;;;7.13;2.92;;;0.40;99.90;;;;;;5057813;28;20040;-76
2022/12/04 08:56:46;;;;;;;0.90;0.90;;;0.50;99.90;;;;;;5040154;28;20041;-76
2022/12/04 08:59:12;;;;;;;2.28;2.10;;;0.50;99.90;;;;;;5061439;28;20475;-76
2022/12/04 09:01:38;;;;;;;8.52;3.28;;;0.50;99.90;;;;;;5060416;28;20064;-76
2022/12/04 09:04:03;;;;;;;2.53;2.05;;;0.50;99.90;;;;;;5061471;28;20044;-76
2022/12/04 09:06:29;;;;;;;1.33;0.98;;;0.50;99.90;;;;;;5061255;28;20498;-76
2022/12/04 09:08:56;;;;;;;2.83;2.53;;;0.60;99.90;;;;;;5060206;28;20051;-76
2022/12/04 09:11:24;;;;;;;1.85;1.73;;;0.60;99.90;;;;;;5060594;28;20036;-76
2022/12/04 09:13:50;;;;;;;2.85;2.60;;;0.60;99.90;;;;;;5060995;28;20056;-76
2022/12/04 09:16:22;;;;;;;2.13;2.00;;;0.60;99.90;;;;;;5060975;28;20482;-76
2022/12/04 09:18:49;;;;;;;2.88;1.45;;;0.70;99.90;;;;;;5061406;28;20545;-76
2022/12/04 09:21:16;;;;;;;1.02;0.93;;;0.70;99.90;;;;;;5061141;28;20040;-76
2022/12/04 09:23:42;;;;;;;0.30;0.30;;;0.70;99.90;;;;;;5061444;28;20406;-76
2022/12/04 09:26:20;;;;;;;2.72;2.53;;;0.80;99.90;;;;;;5060670;28;20441;-76
2022/12/04 09:28:46;;;;;;;6.65;4.15;;;0.80;99.90;;;;;;5059746;28;20044;-76
2022/12/04 09:31:12;;;;;;;3.83;2.72;;;0.80;99.90;;;;;;5061178;28;20091;-76
2022/12/04 09:33:38;;;;;;;3.38;3.08;;;0.80;99.90;;;;;;5061470;28;20080;-76
2022/12/04 09:36:04;;;;;;;3.33;2.88;;;0.90;99.90;;;;;;5061159;28;20143;-76
2022/12/04 09:38:30;;;;;;;2.78;2.10;;;0.90;99.90;;;;;;5042271;28;20044;-76
2022/12/04 09:41:14;;;;;;;2.38;2.28;;;0.90;99.90;;;;;;5060867;28;20044;-76
2022/12/04 09:44:07;;;;;;;3.22;1.83;;;1.00;99.90;;;;;;5060940;28;20135;-76
2022/12/04 09:46:51;;;;;;;0.40;0.40;;;1.00;99.90;;;;;;5060902;28;20121;-76
2022/12/04 09:49:47;;;;;;;13.73;4.65;;;1.10;99.90;;;;;;5060523;28;20048;-76
2022/12/04 09:52:38;;;;;;;1.25;1.10;;;1.10;99.90;;;;;;5060581;28;20049;-76
2022/12/04 09:55:09;;;;;;;2.53;2.40;;;1.20;99.90;;;;;;5060371;28;20071;-76
2022/12/04 09:57:43;;;;;;;2.75;2.25;;;1.20;99.90;;;;;;5058309;28;20041;-76
2022/12/04 10:00:14;;;;;;;0.77;0.77;;;1.20;99.90;;;;;;5057918;28;20048;-76
2022/12/04 10:02:43;;;;;;;0.85;0.85;;;1.30;1.00;;;;;;5060142;28;20501;-76
2022/12/04 10:05:20;;;;;;;1.17;1.05;;;1.40;99.90;;;;;;5060729;28;20155;-76
2022/12/04 10:08:01;;;;;;;0.95;0.95;;;1.40;55.10;;;;;;5059776;28;20063;-76
2022/12/04 10:10:36;;;;;;;1.40;1.30;;;1.50;1.00;;;;;;5060007;28;20044;-76
2022/12/04 10:13:22;;;;;;;2.45;1.33;;;1.60;1.00;;;;;;5060283;28;20044;-76
2022/12/04 10:15:52;;;;;;;;;;;1.60;1.00;;;;;;5060624;28;20563;-76
2022/12/04 10:18:46;;;;;;;4.10;2.88;;;1.70;1.00;;;;;;5060198;28;19928;-77
2022/12/04 10:21:30;;;;;;;2.35;2.20;;;1.80;29.00;;;;;;5059806;28;20494;-77
2022/12/04 10:24:30;;;;;;;1.63;1.52;;;1.90;99.90;;;;;;5041174;28;20134;-77
2022/12/04 10:27:00;;;;;;;1.35;1.25;;;1.90;1.00;;;;;;5059267;28;20099;-76
2022/12/04 10:29:33;;;;;;;0.38;0.38;;;2.00;99.90;;;;;;5059398;28;20139;-76
2022/12/04 10:32:16;;;;;;;2.08;1.42;;;2.00;1.00;;;;;;5059213;28;20052;-76
2022/12/04 10:34:43;;;;;;;10.23;2.17;;;2.00;99.90;;;;;;5059289;28;20048;-76
2022/12/04 10:37:13;;;;;;;1.48;1.38;;;2.00;99.90;;;;;;5059933;28;20135;-76
2022/12/04 10:39:46;;;;;;;8.23;2.20;;;2.00;99.90;;;;;;5059651;28;20082;-76
2022/12/04 10:42:34;;;;;;;6.20;3.58;;;2.00;99.90;;;;;;5059758;28;20053;-76
2022/12/04 10:45:00;;;;;;;9.88;2.33;;;2.10;99.90;;;;;;5059094;28;20055;-76
2022/12/04 10:47:27;;;;;;;1.25;0.93;;;2.10;99.90;;;;;;5059911;28;20498;-76
2022/12/04 10:50:12;;;;;;;1.17;1.08;;;2.10;99.90;;;;;;5059051;28;20052;-76
2022/12/04 10:52:38;;;;;;;1.13;1.08;;;2.10;99.90;;;;;;5058633;28;20073;-76
2022/12/04 10:55:04;;;;;;;2.38;2.17;;;2.10;1.00;;;;;;5059484;28;20041;-76
2022/12/04 10:57:44;;;;;;;2.25;1.98;;;2.10;99.90;;;;;;5057574;28;20076;-76
2022/12/04 11:00:33;;;;;;;1.70;1.58;;;2.10;1.10;;;;;;5043641;28;20040;-76
2022/12/04 11:03:08;;;;;;;1.08;0.90;;;2.10;99.90;;;;;;5057954;28;20055;-76
2022/12/04 11:05:43;;;;;;;1.50;1.40;;;2.10;99.90;;;;;;5058817;28;20535;-76
2022/12/04 11:08:21;;;;;;;2.47;0.70;;;2.20;1.00;;;;;;5059031;28;20051;-76
2022/12/04 11:10:57;;;;;;;1.33;1.23;;;2.10;99.90;;;;;;5059097;28;20051;-76
2022/12/04 11:13:23;;;;;;;1.33;0.93;;;2.20;96.10;;;;;;5059134;28;20409;-76
2022/12/04 11:15:51;;;;;;;2.08;1.70;;;2.10;99.90;;;;;;5058702;28;20083;-76
2022/12/04 11:18:25;;;;;;;1.35;1.25;;;2.20;99.90;;;;;;5060284;28;20046;-76
2022/12/04 11:20:58;;;;;;;0.20;0.20;;;2.20;99.90;;;;;;5061064;28;20056;-76
2022/12/04 11:23:26;;;;;;;1.80;1.65;;;2.20;99.90;;;;;;5061495;28;20052;-76
2022/12/04 11:25:55;;;;;;;0.65;0.65;;;2.20;17.80;;;;;;5061489;28;20065;-76
2022/12/04 11:28:32;;;;;;;0.38;0.38;;;2.20;1.00;;;;;;5061254;28;20045;-76
2022/12/04 11:31:01;;;;;;;1.85;1.75;;;2.20;1.00;;;;;;5061626;28;20087;-76
2022/12/04 11:33:50;;;;;;;4.05;1.98;;;2.20;76.80;;;;;;5060477;28;20044;-76
2022/12/04 11:36:24;;;;;;;0.45;0.45;;;2.20;99.90;;;;;;5061420;28;20045;-76
2022/12/04 11:38:52;;;;;;;0.90;0.88;;;2.20;1.00;;;;;;5061154;28;20067;-76
2022/12/04 11:41:29;;;;;;;0.63;0.63;;;2.20;99.90;;;;;;5060863;28;20067;-76
2022/12/04 11:43:56;;;;;;;0.63;0.63;;;2.20;1.00;;;;;;5061084;28;20545;-76
2022/12/04 11:46:25;;;;;;;1.25;1.15;;;2.20;96.00;;;;;;5061609;28;20078;-76
2022/12/04 11:48:51;;;;;;;1.15;1.13;;;2.10;99.90;;;;;;5061278;28;20405;-76
2022/12/04 11:51:38;;;;;;;4.50;2.45;;;2.10;75.70;;;;;;5061099;28;20044;-76
2022/12/04 11:54:44;;;;;;;1.23;1.13;;;2.10;75.40;;;;;;5062711;28;20545;-76
2022/12/04 11:57:41;;;;;;;2.45;1.88;;;2.20;99.90;;;;;;5062649;28;20094;-76
2022/12/04 12:00:14;;;;;;;;;;;2.10;87.90;;;;;;5062538;28;20051;-76
2022/12/04 12:03:04;;;;;;;0.30;0.30;;;2.10;99.90;;;;;;5062412;28;20397;-76
2022/12/04 12:06:00;;;;;;;0.95;0.90;;;2.10;99.90;;;;;;5062548;28;20052;-74
2022/12/04 12:08:47;;;;;;;3.20;1.73;;;2.20;99.90;;;;;;5062164;28;20146;-76
2022/12/04 12:11:25;;;;;;;2.58;1.38;;;2.20;99.90;;;;;;5062518;28;20048;-76
2022/12/04 12:14:18;;;;;;;0.98;0.98;;;2.20;22.30;;;;;;5064527;28;20048;-76
2022/12/04 12:17:34;;;;;;;1.25;1.17;;;2.20;41.60;;;;;;5062596;28;20044;-75
2022/12/04 12:20:09;;;;;;;4.78;0.95;;;2.20;99.90;;;;;;5026929;28;20056;-76
2022/12/04 12:23:02;;;;;;;1.08;0.98;;;2.30;99.90;;;;;;5061923;28;20400;-75
2022/12/04 12:25:56;;;;;;;5.57;1.63;;;2.30;1.00;;;;;;5030079;28;20064;-75
2022/12/04 12:28:33;;;;;;;0.73;0.73;;;2.40;99.90;;;;;;5041752;28;20045;-75
2022/12/04 12:31:29;;;;;;;0.65;0.65;;;2.40;99.90;;;;;;5029519;28;20065;-75
2022/12/04 12:34:09;;;;;;;13.40;1.50;;;2.40;1.00;;;;;;5047738;28;20075;-75
2022/12/04 12:36:41;;;;;;;1.27;1.15;;;2.40;99.90;;;;;;5047675;28;20118;-76
2022/12/04 12:39:29;;;;;;;0.80;0.80;;;2.40;97.40;;;;;;5065479;28;20053;-76
2022/12/04 12:41:59;;;;;;;1.83;1.67;;;3.10;1.00;;;;;;5065117;28;20418;-76
2022/12/04 12:44:41;;;;;;;3.70;1.48;;;2.40;1.00;;;;;;5065259;28;20048;-75
2022/12/04 12:47:13;;;;;;;0.98;0.98;;;2.40;1.00;;;;;;5047224;28;20045;-75
2022/12/04 12:50:02;;;;;;;1.08;0.93;;;2.40;1.00;;;;;;5045564;28;20131;-76
2022/12/04 12:52:33;;;;;;;3.60;1.85;;;2.40;1.00;;;;;;5062168;28;20440;-75
2022/12/04 12:55:23;;;;;;;0.50;0.50;;;2.40;99.90;;;;;;5064919;28;20101;-76
2022/12/04 12:58:19;;;;;;;0.93;0.77;;;2.40;99.90;;;;;;5065223;28;20080;-75
2022/12/04 13:01:04;;;;;;;2.40;2.00;;;2.40;1.00;;;;;;5064556;28;20488;-76
2022/12/04 13:04:01;;;;;;;1.05;0.98;;;2.40;41.60;;;;;;5064855;28;20051;-75
2022/12/04 13:06:38;;;;;;;1.88;1.20;;;2.40;99.90;;;;;;5045171;28;20885;-75
2022/12/04 13:09:31;;;;;;;1.70;1.60;;;2.40;1.00;;;;;;5063746;28;20048;-75
2022/12/04 13:12:11;;;;;;;0.75;0.75;;;2.40;94.10;;;;;;5063918;28;20044;-75
2022/12/04 13:14:37;;;;;;;0.80;0.80;;;2.40;99.90;;;;;;5063751;28;20529;-75
2022/12/04 13:17:11;;;;;;;2.60;2.00;;;2.40;1.00;;;;;;5063896;28;20227;-76
2022/12/04 13:19:45;;;;;;;0.38;0.38;;;2.40;1.00;;;;;;5063715;28;20600;-76
2022/12/04 13:22:35;;;;;;;5.47;1.85;;;2.40;75.70;;;;;;5063510;28;20509;-76
2022/12/04 13:25:04;;;;;;;1.85;1.50;;;2.40;1.00;;;;;;5063506;28;20052;-75
2022/12/04 13:27:48;;;;;;;1.05;1.00;;;2.40;99.90;;;;;;5063511;28;20060;-76
2022/12/04 13:30:22;;;;;;;0.30;0.30;;;2.40;99.90;;;;;;5045561;28;20059;-75
2022/12/04 13:32:55;;;;;;;3.83;1.27;;;2.40;1.00;;;;;;5063139;28;20044;-75
2022/12/04 13:35:58;;;;;;;3.20;2.28;;;2.40;99.90;;;;;;5063235;28;20129;-75
2022/12/04 13:38:33;;;;;;;0.93;0.90;;;2.40;1.00;;;;;;5063020;28;20055;-75
2022/12/04 13:41:09;;;;;;;3.63;3.33;;;2.40;1.00;;;;;;5045471;28;20064;-75